首页
METAR-TAF:

METAR-TAF

机场 :

Coeur d'Alene, 爱达荷州, 美国

纬度: 47-46N, 经度: 116-49W, 海拔: 707米

当前天气观测

该预报发布于58分钟前的15:56 UTC
风速5节,风向西转西南
温度 15°C
湿度 51%
气压 1018 hPa
能見度: 16.1公里
天空无云

METAR: KCOE 241556Z AUTO 25005KT 10SM CLR 15/05 A3005 RMK AO2 SLP184 T01500050 PNO $

时间: 09:54 (16:54 UTC)

预报

该预报发布于5小时和29分钟前的11:25 UTC
预报有效从24日的 12点(UTC)到 25日的 12点(UTC)
风速8节,风向南转西南
能見度: 10公里
散云层高于20000英尺
从 24日的 1900点(UTC)
风速7节,风向西转西南
能見度: 10公里
少量云层高于15000英尺
少量云层高于20000英尺
从 25日的 0400点(UTC)
风速4节,风向东转东南
能見度: 10公里
天空无云

TAF: KCOE 241125Z 2412/2512 21008KT P6SM SCT200 FM241900 24007KT P6SM FEW150 FEW200 FM250400 11004KT P6SM SKC

超过4000个机场的气象观测和天气预报(METAR&TAF报告)。

可查询的气象台以黄色和红色小点在地图上表示。

将鼠标移到小点上方,可查看气象台名称。

然后点击查看天气观测和预报。

如需切换地图:点击带黑十字的绿色按钮放大地图;点击带横线的绿色按钮缩小地图;或者点击绿色箭头查看邻近地区的地图。


METAR-TAF: